createdAt,value
2019-06-26T00:00:36.335Z,4.93
2019-06-26T00:03:05.181Z,5.10
2019-06-26T00:05:35.540Z,5.30
2019-06-26T00:08:05.245Z,5.23
2019-06-26T00:10:34.755Z,4.80
2019-06-26T00:13:04.138Z,5.07
2019-06-26T00:15:33.848Z,5.63
2019-06-26T00:18:03.667Z,5.60
2019-06-26T00:20:33.234Z,5.80
2019-06-26T00:23:02.740Z,6.10
2019-06-26T00:25:32.678Z,6.13
2019-06-26T00:28:02.500Z,6.00
2019-06-26T00:30:31.982Z,5.70
2019-06-26T00:33:01.500Z,5.63
2019-06-26T00:35:31.458Z,5.90
2019-06-26T00:38:01.297Z,5.43
2019-06-26T00:40:30.818Z,6.20
2019-06-26T00:43:00.451Z,6.27
2019-06-26T00:45:30.052Z,6.70
2019-06-26T00:47:59.649Z,6.40
2019-06-26T00:50:29.127Z,6.40
2019-06-26T00:52:58.651Z,6.87
2019-06-26T00:55:28.118Z,7.93
2019-06-26T00:57:57.594Z,7.80
2019-06-26T01:00:32.948Z,8.20
2019-06-26T01:03:02.894Z,8.90
2019-06-26T01:05:32.305Z,8.40
2019-06-26T01:08:01.707Z,9.10
2019-06-26T01:10:31.593Z,9.63
2019-06-26T01:13:01.069Z,9.67
2019-06-26T01:15:30.736Z,9.67
2019-06-26T01:18:00.529Z,10.37
2019-06-26T01:20:29.978Z,10.17
2019-06-26T01:22:59.503Z,9.60
2019-06-26T01:25:29.135Z,9.67
2019-06-26T01:27:58.692Z,9.43
2019-06-26T01:30:28.845Z,9.33
2019-06-26T01:32:58.704Z,9.30
2019-06-26T01:35:28.245Z,9.13
2019-06-26T01:37:57.818Z,9.20
2019-06-26T01:40:27.535Z,9.30
2019-06-26T01:42:57.169Z,8.90
2019-06-26T01:45:26.852Z,8.67
2019-06-26T01:47:56.560Z,9.30
2019-06-26T01:50:26.052Z,8.90
2019-06-26T01:52:55.566Z,9.20
2019-06-26T01:55:25.412Z,8.97
2019-06-26T01:57:54.881Z,9.03
2019-06-26T02:00:24.674Z,8.90
2019-06-26T02:02:54.166Z,8.60
2019-06-26T02:05:23.824Z,9.20
2019-06-26T02:07:53.541Z,10.13
2019-06-26T02:10:23.305Z,8.93
2019-06-26T02:12:52.816Z,8.67
2019-06-26T02:15:22.653Z,10.00
2019-06-26T02:17:52.346Z,9.60
2019-06-26T02:20:22.222Z,8.40
2019-06-26T02:22:52.056Z,8.37
2019-06-26T02:25:21.562Z,8.00
2019-06-26T02:27:50.959Z,8.97
2019-06-26T02:30:20.844Z,9.20
2019-06-26T02:32:50.649Z,8.43
2019-06-26T02:35:20.029Z,8.50
2019-06-26T02:37:49.493Z,7.93
2019-06-26T02:40:19.727Z,7.17
2019-06-26T02:42:49.436Z,7.10
2019-06-26T02:45:18.948Z,6.90
2019-06-26T02:47:48.437Z,7.77
2019-06-26T02:50:18.246Z,8.10
2019-06-26T02:52:48.057Z,7.87
2019-06-26T02:55:17.759Z,7.97
2019-06-26T02:57:49.867Z,8.07
2019-06-26T03:00:19.337Z,7.43
2019-06-26T03:02:49.002Z,7.50
2019-06-26T03:05:18.878Z,7.90
2019-06-26T03:07:48.380Z,7.03
2019-06-26T03:10:17.892Z,7.33
2019-06-26T03:12:47.626Z,6.80
2019-06-26T03:15:18.155Z,6.87
2019-06-26T03:17:55.310Z,6.50
2019-06-26T03:20:22.610Z,7.97
2019-06-26T03:22:52.236Z,7.53
2019-06-26T03:25:21.877Z,8.60
2019-06-26T03:27:51.658Z,8.53
2019-06-26T03:30:21.281Z,7.80
2019-06-26T03:32:50.776Z,7.90
2019-06-26T03:35:20.277Z,7.67
2019-06-26T03:37:49.979Z,7.30
2019-06-26T03:40:19.892Z,7.47
2019-06-26T03:42:49.417Z,7.33
2019-06-26T03:45:25.803Z,6.93
2019-06-26T03:47:50.356Z,7.40
2019-06-26T03:50:21.198Z,7.27
2019-06-26T03:52:50.996Z,7.70
2019-06-26T03:55:20.375Z,7.20
2019-06-26T03:57:49.929Z,7.60
2019-06-26T04:00:27.632Z,7.60
2019-06-26T04:02:57.408Z,7.30
2019-06-26T04:05:26.789Z,7.73
2019-06-26T04:07:56.179Z,7.90
2019-06-26T04:10:25.670Z,7.83
2019-06-26T04:12:55.371Z,7.80
2019-06-26T04:15:32.168Z,7.70
2019-06-26T04:17:56.085Z,7.87
2019-06-26T04:20:26.087Z,7.57
2019-06-26T04:22:55.589Z,7.80
2019-06-26T04:25:25.552Z,7.97
2019-06-26T04:27:55.318Z,7.77
2019-06-26T04:30:25.394Z,8.13
2019-06-26T04:32:54.784Z,7.43
2019-06-26T04:35:24.555Z,8.10
2019-06-26T04:37:54.395Z,7.93
2019-06-26T04:40:23.951Z,7.43
2019-06-26T04:42:53.521Z,8.17
2019-06-26T04:45:23.094Z,7.90
2019-06-26T04:47:52.777Z,8.87
2019-06-26T04:50:22.794Z,8.27
2019-06-26T04:52:52.304Z,8.07
2019-06-26T04:55:22.019Z,7.80
2019-06-26T04:57:51.690Z,9.10
2019-06-26T05:00:21.982Z,8.80
2019-06-26T05:02:51.656Z,8.53
2019-06-26T05:05:21.452Z,8.70
2019-06-26T05:07:53.737Z,8.50
2019-06-26T05:10:22.749Z,8.70
2019-06-26T05:12:52.335Z,8.57
2019-06-26T05:15:22.418Z,8.37
2019-06-26T05:17:51.849Z,8.57
2019-06-26T05:20:21.666Z,8.40
2019-06-26T05:22:51.373Z,7.77
2019-06-26T05:25:20.868Z,8.80
2019-06-26T05:27:50.419Z,8.17
2019-06-26T05:30:20.192Z,7.83
2019-06-26T05:32:50.103Z,8.20
2019-06-26T05:35:20.925Z,8.53
2019-06-26T05:37:50.311Z,8.37
2019-06-26T05:40:20.124Z,8.97
2019-06-26T05:42:49.587Z,8.60
2019-06-26T05:45:19.373Z,8.17
2019-06-26T05:47:48.966Z,8.17
2019-06-26T05:50:20.132Z,8.30
2019-06-26T05:52:49.949Z,8.90
2019-06-26T05:55:19.517Z,9.10
2019-06-26T05:57:49.026Z,8.00
2019-06-26T06:00:19.218Z,8.90
2019-06-26T06:02:49.063Z,8.40
2019-06-26T06:05:18.870Z,7.67
2019-06-26T06:07:48.477Z,8.43
2019-06-26T06:10:18.655Z,8.60
2019-06-26T06:12:48.418Z,8.83
2019-06-26T06:15:19.786Z,8.90
2019-06-26T06:17:49.298Z,8.73
2019-06-26T06:20:25.756Z,8.57
2019-06-26T06:22:55.299Z,8.47
2019-06-26T06:25:25.002Z,8.87
2019-06-26T06:27:54.756Z,8.77
2019-06-26T06:30:24.461Z,9.13
2019-06-26T06:32:53.963Z,9.03
2019-06-26T06:35:23.770Z,8.77
2019-06-26T06:37:53.582Z,8.57
2019-06-26T06:40:23.664Z,8.50
2019-06-26T06:42:53.527Z,9.13
2019-06-26T06:45:24.154Z,8.93
2019-06-26T06:47:54.100Z,9.07
2019-06-26T06:50:23.491Z,9.57
2019-06-26T06:52:53.062Z,8.80
2019-06-26T06:55:22.951Z,9.20
2019-06-26T06:57:52.792Z,9.10
2019-06-26T07:00:22.863Z,9.00
2019-06-26T07:02:52.523Z,8.50
2019-06-26T07:05:22.088Z,9.10
2019-06-26T07:07:51.635Z,8.87
2019-06-26T07:10:21.494Z,8.80
2019-06-26T07:12:51.483Z,9.13
2019-06-26T07:15:21.464Z,9.53
2019-06-26T07:17:50.880Z,9.37
2019-06-26T07:20:21.517Z,9.43
2019-06-26T07:22:51.313Z,9.03
2019-06-26T07:25:20.836Z,9.63
2019-06-26T07:27:50.318Z,8.80
2019-06-26T07:30:20.339Z,9.83
2019-06-26T07:32:49.981Z,9.40
2019-06-26T07:35:19.546Z,9.30
2019-06-26T07:37:49.158Z,9.33
2019-06-26T07:40:19.759Z,9.73
2019-06-26T07:42:49.190Z,9.77
2019-06-26T07:45:18.671Z,9.47
2019-06-26T07:47:48.409Z,9.90
2019-06-26T07:50:18.329Z,9.47
2019-06-26T07:52:48.085Z,9.43
2019-06-26T07:55:17.896Z,9.20
2019-06-26T07:57:47.662Z,9.83
2019-06-26T08:00:18.411Z,9.97
2019-06-26T08:02:48.027Z,9.90
2019-06-26T08:05:18.266Z,9.47
2019-06-26T08:07:48.015Z,10.20
2019-06-26T08:10:17.725Z,10.03
2019-06-26T08:12:47.331Z,9.23
2019-06-26T08:15:18.324Z,9.70
2019-06-26T08:17:59.820Z,10.30
2019-06-26T08:20:19.820Z,9.87
2019-06-26T08:22:49.481Z,9.50
2019-06-26T08:25:18.911Z,9.37
2019-06-26T08:27:48.394Z,9.17
2019-06-26T08:30:18.588Z,9.13
2019-06-26T08:32:48.046Z,8.17
2019-06-26T08:35:17.451Z,8.60
2019-06-26T08:37:46.868Z,8.90
2019-06-26T08:40:17.040Z,9.13
2019-06-26T08:42:46.601Z,8.57
2019-06-26T08:45:16.506Z,8.53
2019-06-26T08:47:46.121Z,8.67
2019-06-26T08:50:16.346Z,8.63
2019-06-26T08:52:46.058Z,8.00
2019-06-26T08:55:15.941Z,9.67
2019-06-26T08:57:45.466Z,9.13
2019-06-26T09:00:17.016Z,8.60
2019-06-26T09:02:46.504Z,9.27
2019-06-26T09:05:16.270Z,9.10
2019-06-26T09:07:45.950Z,8.83
2019-06-26T09:10:18.488Z,9.10
2019-06-26T09:12:47.867Z,8.67
2019-06-26T09:15:17.563Z,8.90
2019-06-26T09:17:47.356Z,8.97
2019-06-26T09:20:21.851Z,9.10
2019-06-26T09:22:51.608Z,8.67
2019-06-26T09:25:22.656Z,9.13
2019-06-26T09:27:52.253Z,9.13
2019-06-26T09:30:23.093Z,8.67
2019-06-26T09:32:52.500Z,8.50
2019-06-26T09:35:22.103Z,8.53
2019-06-26T09:37:51.858Z,8.70
2019-06-26T09:40:21.341Z,8.83
2019-06-26T09:42:50.812Z,8.70
2019-06-26T09:45:21.283Z,8.60
2019-06-26T09:47:51.047Z,9.73
2019-06-26T09:50:21.345Z,8.87
2019-06-26T09:52:50.953Z,8.37
2019-06-26T09:55:20.561Z,9.87
2019-06-26T09:57:50.023Z,9.20
2019-06-26T10:00:21.984Z,9.03
2019-06-26T10:02:51.453Z,7.87
2019-06-26T10:05:21.680Z,8.40
2019-06-26T10:07:51.072Z,8.23
2019-06-26T10:10:22.637Z,8.43
2019-06-26T10:12:52.449Z,7.77
2019-06-26T10:15:21.827Z,8.27
2019-06-26T10:17:51.200Z,7.67
2019-06-26T10:20:20.777Z,7.70
2019-06-26T10:22:50.167Z,8.50
2019-06-26T10:25:20.064Z,9.43
2019-06-26T10:27:49.932Z,10.00
2019-06-26T10:30:20.916Z,9.07
2019-06-26T10:32:50.307Z,9.27
2019-06-26T10:35:20.295Z,8.87
2019-06-26T10:37:50.033Z,8.53
2019-06-26T10:40:19.668Z,7.70
2019-06-26T10:42:50.246Z,7.30
2019-06-26T10:45:20.111Z,7.40
2019-06-26T10:47:49.561Z,7.23
2019-06-26T10:50:19.167Z,6.95
2019-06-26T10:52:48.711Z,7.10
2019-06-26T10:55:18.303Z,7.28
2019-06-26T10:57:47.802Z,8.00
2019-06-26T11:00:19.465Z,7.20
2019-06-26T11:02:49.004Z,6.70
2019-06-26T11:05:18.571Z,6.40
2019-06-26T11:07:50.272Z,6.30
2019-06-26T11:10:20.966Z,6.08
2019-06-26T11:12:50.358Z,5.92
2019-06-26T11:15:20.549Z,5.92
2019-06-26T11:17:50.016Z,5.78
2019-06-26T11:20:19.646Z,5.75
2019-06-26T11:22:49.069Z,6.20
2019-06-26T11:25:20.770Z,5.87
2019-06-26T11:27:50.691Z,6.03
2019-06-26T11:30:21.723Z,6.55
2019-06-26T11:32:51.134Z,6.40
2019-06-26T11:35:20.642Z,5.60
2019-06-26T11:37:50.119Z,6.00
2019-06-26T11:40:19.849Z,6.37
2019-06-26T11:42:49.523Z,6.78
2019-06-26T11:45:19.406Z,5.97
2019-06-26T11:47:48.793Z,5.53
2019-06-26T11:50:19.133Z,5.55
2019-06-26T11:52:48.650Z,6.10
2019-06-26T11:55:18.912Z,6.00
2019-06-26T11:57:48.296Z,6.85
2019-06-26T12:00:18.930Z,6.05
2019-06-26T12:02:48.466Z,6.55
2019-06-26T12:05:18.113Z,7.00
2019-06-26T12:07:47.493Z,7.17
2019-06-26T12:10:17.759Z,7.40
2019-06-26T12:12:47.395Z,8.07
2019-06-26T12:15:17.310Z,7.63
2019-06-26T12:17:46.819Z,7.90
2019-06-26T12:20:19.008Z,7.80
2019-06-26T12:22:47.830Z,7.60
2019-06-26T12:25:17.510Z,7.63
2019-06-26T12:27:46.971Z,8.07
2019-06-26T12:30:16.994Z,7.67
2019-06-26T12:33:01.563Z,7.43
2019-06-26T12:35:17.713Z,6.77
2019-06-26T12:37:47.240Z,7.40
2019-06-26T12:40:16.840Z,6.37
2019-06-26T12:42:46.367Z,6.00
2019-06-26T12:45:16.403Z,6.20
2019-06-26T12:47:45.856Z,6.20
2019-06-26T12:50:33.768Z,5.50
2019-06-26T12:52:48.211Z,6.42
2019-06-26T12:55:17.927Z,5.55
2019-06-26T12:57:47.395Z,6.22
2019-06-26T13:00:17.976Z,6.55
2019-06-26T13:02:47.443Z,6.70
2019-06-26T13:05:17.322Z,7.20
2019-06-26T13:07:46.953Z,6.53
2019-06-26T13:10:17.055Z,4.70
2019-06-26T13:12:46.535Z,2.93
2019-06-26T13:15:16.633Z,3.70
2019-06-26T13:17:46.070Z,4.10
2019-06-26T13:20:15.761Z,4.70
2019-06-26T13:22:45.527Z,7.73
2019-06-26T13:25:16.197Z,11.07
2019-06-26T13:27:45.823Z,11.60
2019-06-26T13:30:17.035Z,10.90
2019-06-26T13:32:46.972Z,13.13
2019-06-26T13:35:16.488Z,12.20
2019-06-26T13:37:45.875Z,13.13
2019-06-26T13:40:15.801Z,13.27
2019-06-26T13:42:45.575Z,12.00
2019-06-26T13:45:15.996Z,14.30
2019-06-26T13:47:45.634Z,17.10
2019-06-26T13:50:15.623Z,19.10
2019-06-26T13:52:45.318Z,16.90
2019-06-26T13:55:14.982Z,14.23
2019-06-26T13:57:44.654Z,12.00
2019-06-26T14:00:15.938Z,10.80
2019-06-26T14:02:45.397Z,13.17
2019-06-26T14:05:17.334Z,13.70
2019-06-26T14:07:46.730Z,17.37
2019-06-26T14:10:17.518Z,15.33
2019-06-26T14:12:47.372Z,17.57
2019-06-26T14:15:18.759Z,15.73
2019-06-26T14:17:48.635Z,16.23
2019-06-26T14:20:18.685Z,15.97
2019-06-26T14:22:48.358Z,11.97
2019-06-26T14:25:18.733Z,13.83
2019-06-26T14:27:48.493Z,11.57
2019-06-26T14:30:18.609Z,10.37
2019-06-26T14:32:48.119Z,9.27
2019-06-26T14:35:17.915Z,8.07
2019-06-26T14:37:47.382Z,7.17
2019-06-26T14:40:17.215Z,7.30
2019-06-26T14:42:46.649Z,5.33
2019-06-26T14:45:17.303Z,4.73
2019-06-26T14:47:46.821Z,6.40
2019-06-26T14:50:16.831Z,6.80
2019-06-26T14:52:46.436Z,7.60
2019-06-26T14:55:16.012Z,8.33
2019-06-26T14:57:45.907Z,8.60
2019-06-26T15:00:15.921Z,8.90
2019-06-26T15:02:45.420Z,9.40
2019-06-26T15:05:15.133Z,7.00
2019-06-26T15:07:44.790Z,8.17
2019-06-26T15:10:14.969Z,8.90
2019-06-26T15:12:44.629Z,9.60
2019-06-26T15:15:14.575Z,9.70
2019-06-26T15:17:44.074Z,9.73
2019-06-26T15:20:15.464Z,9.27
2019-06-26T15:22:44.930Z,10.03
2019-06-26T15:25:15.086Z,9.73
2019-06-26T15:27:44.488Z,10.77
2019-06-26T15:30:14.264Z,9.67
2019-06-26T15:32:43.748Z,10.10
2019-06-26T15:35:13.279Z,9.70
2019-06-26T15:37:44.816Z,9.93
2019-06-26T15:40:14.698Z,10.67
2019-06-26T15:42:44.081Z,11.20
2019-06-26T15:45:14.113Z,10.80
2019-06-26T15:47:43.594Z,10.93
2019-06-26T15:50:13.218Z,10.23
2019-06-26T15:52:42.791Z,11.53
2019-06-26T15:55:12.315Z,9.90
2019-06-26T15:57:41.823Z,10.17
2019-06-26T16:00:11.603Z,9.63
2019-06-26T16:02:41.137Z,10.27
2019-06-26T16:05:10.805Z,8.83
2019-06-26T16:07:40.276Z,9.50
2019-06-26T16:10:10.474Z,9.90
2019-06-26T16:12:39.929Z,11.07
2019-06-26T16:15:10.006Z,9.60
2019-06-26T16:17:58.058Z,9.27
2019-06-26T16:20:27.618Z,12.80
2019-06-26T16:22:57.221Z,12.47
2019-06-26T16:25:27.767Z,14.33
2019-06-26T16:28:05.194Z,13.87
2019-06-26T16:30:29.026Z,14.17
2019-06-26T16:32:58.644Z,11.23
2019-06-26T16:35:28.477Z,11.07
2019-06-26T16:37:58.027Z,11.47
2019-06-26T16:40:27.804Z,10.23
2019-06-26T16:42:57.343Z,11.07
2019-06-26T16:45:27.526Z,11.53
2019-06-26T16:47:57.275Z,12.57
2019-06-26T16:50:26.867Z,13.70
2019-06-26T16:52:56.503Z,14.53
2019-06-26T16:55:26.434Z,14.43
2019-06-26T16:57:56.234Z,16.10
2019-06-26T17:00:25.908Z,15.60
2019-06-26T17:02:55.676Z,15.40
2019-06-26T17:05:25.064Z,15.20
2019-06-26T17:07:54.525Z,16.70
2019-06-26T17:10:24.584Z,15.73
2019-06-26T17:12:54.059Z,15.40
2019-06-26T17:15:23.446Z,15.77
2019-06-26T17:17:53.611Z,16.17
2019-06-26T17:20:23.364Z,17.10
2019-06-26T17:23:05.266Z,17.47
2019-06-26T17:25:25.551Z,18.10
2019-06-26T17:27:55.281Z,13.93
2019-06-26T17:30:25.209Z,13.30
2019-06-26T17:32:54.776Z,13.90
2019-06-26T17:35:24.293Z,13.60
2019-06-26T17:37:54.018Z,15.07
2019-06-26T17:40:23.771Z,14.50
2019-06-26T17:42:53.396Z,14.13
2019-06-26T17:45:23.249Z,14.03
2019-06-26T17:47:52.850Z,14.07
2019-06-26T17:50:23.494Z,14.53
2019-06-26T17:52:53.336Z,14.93
2019-06-26T17:55:23.355Z,15.57
2019-06-26T17:57:52.944Z,16.60
2019-06-26T18:00:26.110Z,14.03
2019-06-26T18:02:55.668Z,13.87
2019-06-26T18:05:25.382Z,14.83
2019-06-26T18:07:54.813Z,13.33
2019-06-26T18:10:24.214Z,14.03
2019-06-26T18:12:53.894Z,13.27
2019-06-26T18:15:23.393Z,14.37
2019-06-26T18:17:52.985Z,16.00
2019-06-26T18:20:22.459Z,14.00
2019-06-26T18:23:06.024Z,13.93
2019-06-26T18:25:23.692Z,13.43
2019-06-26T18:27:53.506Z,13.43
2019-06-26T18:30:23.292Z,13.80
2019-06-26T18:32:52.728Z,14.63
2019-06-26T18:35:22.119Z,13.90
2019-06-26T18:37:51.820Z,16.27
2019-06-26T18:40:21.609Z,15.67
2019-06-26T18:42:51.643Z,14.67
2019-06-26T18:45:21.050Z,13.83
2019-06-26T18:47:50.490Z,15.10
2019-06-26T18:50:20.680Z,16.00
2019-06-26T18:52:50.105Z,15.77
2019-06-26T18:55:19.483Z,12.80
2019-06-26T18:57:49.408Z,12.90
2019-06-26T19:00:19.239Z,12.57
2019-06-26T19:02:48.709Z,13.10
2019-06-26T19:05:18.591Z,13.53
2019-06-26T19:07:48.020Z,12.83
2019-06-26T19:10:17.518Z,14.07
2019-06-26T19:12:47.017Z,14.13
2019-06-26T19:15:17.174Z,13.73
2019-06-26T19:17:46.852Z,14.57
2019-06-26T19:20:17.734Z,11.57
2019-06-26T19:22:47.722Z,12.30
2019-06-26T19:25:17.336Z,11.90
2019-06-26T19:27:47.126Z,12.00
2019-06-26T19:30:16.713Z,12.63
2019-06-26T19:32:46.447Z,13.80
2019-06-26T19:35:20.142Z,11.97
2019-06-26T19:37:46.119Z,12.17
2019-06-26T19:40:16.147Z,12.50
2019-06-26T19:42:45.612Z,12.53
2019-06-26T19:45:16.408Z,12.40
2019-06-26T19:47:45.813Z,13.17
2019-06-26T19:50:16.590Z,11.87
2019-06-26T19:52:46.154Z,12.77
2019-06-26T19:55:15.752Z,12.97
2019-06-26T19:57:45.140Z,12.57
2019-06-26T20:00:15.128Z,12.97
2019-06-26T20:02:44.600Z,12.73
2019-06-26T20:05:14.225Z,13.00
2019-06-26T20:07:43.624Z,13.17
2019-06-26T20:10:14.872Z,12.33
2019-06-26T20:12:44.365Z,12.30
2019-06-26T20:15:14.456Z,11.90
2019-06-26T20:17:43.909Z,12.40
2019-06-26T20:20:13.479Z,12.47
2019-06-26T20:22:42.874Z,12.27
2019-06-26T20:25:12.744Z,13.40
2019-06-26T20:27:42.244Z,14.23
2019-06-26T20:30:13.327Z,11.87
2019-06-26T20:32:42.716Z,12.10
2019-06-26T20:35:12.303Z,12.63
2019-06-26T20:37:41.776Z,11.83
2019-06-26T20:40:11.379Z,12.23
2019-06-26T20:42:40.774Z,12.33
2019-06-26T20:45:13.343Z,12.13
2019-06-26T20:47:42.941Z,12.40
2019-06-26T20:50:12.320Z,14.93
2019-06-26T20:52:41.717Z,14.17
2019-06-26T20:55:11.215Z,14.30
2019-06-26T20:57:40.686Z,14.87
2019-06-26T21:00:10.630Z,13.20
2019-06-26T21:02:40.099Z,12.73
2019-06-26T21:05:09.780Z,12.63
2019-06-26T21:07:39.184Z,12.77
2019-06-26T21:10:08.760Z,12.47
2019-06-26T21:12:38.286Z,10.10
2019-06-26T21:15:07.896Z,9.70
2019-06-26T21:17:37.321Z,10.67
2019-06-26T21:20:06.929Z,8.87
2019-06-26T21:22:36.502Z,10.00
2019-06-26T21:25:17.798Z,10.23
2019-06-26T21:27:37.483Z,9.77
2019-06-26T21:30:07.300Z,9.50
2019-06-26T21:32:36.776Z,8.67
2019-06-26T21:35:07.004Z,9.97
2019-06-26T21:37:36.389Z,14.53
2019-06-26T21:40:06.698Z,14.90
2019-06-26T21:42:36.187Z,12.97
2019-06-26T21:45:06.195Z,11.77
2019-06-26T21:47:35.585Z,10.90
2019-06-26T21:50:05.101Z,11.53
2019-06-26T21:52:34.573Z,9.53
2019-06-26T21:55:04.094Z,9.77
2019-06-26T21:57:33.485Z,9.67
2019-06-26T22:00:03.168Z,9.00
2019-06-26T22:02:32.931Z,9.40
2019-06-26T22:05:02.847Z,9.80
2019-06-26T22:07:32.615Z,9.40
2019-06-26T22:10:02.104Z,9.70
2019-06-26T22:12:32.024Z,10.00
2019-06-26T22:15:01.420Z,9.73
2019-06-26T22:17:31.118Z,8.63
2019-06-26T22:20:00.586Z,9.27
2019-06-26T22:22:29.971Z,9.30
2019-06-26T22:24:59.864Z,8.83
2019-06-26T22:27:29.331Z,9.77
2019-06-26T22:29:58.713Z,10.17
2019-06-26T22:32:28.111Z,10.23
2019-06-26T22:34:57.596Z,11.17
2019-06-26T22:37:27.093Z,12.43
2019-06-26T22:39:56.736Z,10.73
2019-06-26T22:42:26.206Z,10.43
2019-06-26T22:44:55.693Z,11.50
2019-06-26T22:47:25.153Z,10.57
2019-06-26T22:49:54.571Z,10.30
2019-06-26T22:52:24.048Z,10.33
2019-06-26T22:54:53.531Z,9.73
2019-06-26T22:57:23.019Z,9.27
2019-06-26T22:59:52.412Z,10.37
2019-06-26T23:02:21.922Z,10.23
2019-06-26T23:04:51.311Z,11.47
2019-06-26T23:07:20.717Z,11.90
2019-06-26T23:09:50.199Z,9.57
2019-06-26T23:12:19.799Z,10.07
2019-06-26T23:14:49.233Z,9.83
2019-06-26T23:17:18.609Z,9.07
2019-06-26T23:19:48.087Z,10.10
2019-06-26T23:22:17.565Z,9.57
2019-06-26T23:24:46.955Z,10.13
2019-06-26T23:27:16.381Z,10.90
2019-06-26T23:29:45.861Z,11.47
2019-06-26T23:32:15.341Z,10.03
2019-06-26T23:34:44.745Z,9.73
2019-06-26T23:37:14.166Z,10.37
2019-06-26T23:39:43.696Z,9.93
2019-06-26T23:42:13.122Z,9.90
2019-06-26T23:44:42.633Z,10.73
2019-06-26T23:47:12.137Z,10.50
2019-06-26T23:49:41.543Z,10.30
2019-06-26T23:52:11.007Z,10.13
2019-06-26T23:54:40.521Z,9.57
2019-06-26T23:57:10.019Z,11.50
2019-06-26T23:59:39.438Z,10.63
